Time;durP1;ratioP1;P1;durP2;ratioP2;P2;SDS_P1;SDS_P2;PMS_P1;PMS_P2;Temp;Humidity;BMP_temperature;BMP_pressure;BME280_temperature;BME280_humidity;BME280_pressure;Samples;Min_cycle;Max_cycle;Signal;HPM_P1;HPM_P2
2022/05/03 00:00:05;;;;;;;;;;;;;;;7.30;100.00;100980.00;5060196;28;20002;-75
2022/05/03 00:02:35;;;;;;;;;;;;;;;7.28;100.00;100952.84;5071874;28;19927;-73
2022/05/03 00:05:03;;;;;;;;;;;;;;;7.24;100.00;100924.69;5087555;28;19937;-76
2022/05/03 00:07:41;;;;;;;;;;;;;;;7.32;100.00;100897.19;5072144;28;20285;-78
2022/05/03 00:10:20;;;;;;;;;;;;;;;7.35;100.00;100890.38;5077664;28;19924;-73
2022/05/03 00:12:48;;;;;;;;;;;;;;;7.32;100.00;100878.84;5076115;28;20029;-73
2022/05/03 00:15:16;;;;;;;;;;;;;;;7.32;100.00;100868.38;5075806;28;19965;-78
2022/05/03 00:17:41;;;;;;;;;;;;;;;7.27;100.00;100862.00;5058647;28;19924;-78
2022/05/03 00:20:07;;;;;;;;;;;;;;;7.18;100.00;100858.09;5055890;28;19924;-78
2022/05/03 00:22:32;;;;;;;;;;;;;;;7.22;100.00;100853.91;5057411;28;19916;-78
2022/05/03 00:24:59;;;;;;;;;;;;;;;7.24;100.00;100844.41;5073763;28;19973;-77
2022/05/03 00:27:25;;;;;;;;;;;;;;;7.24;100.00;100840.88;5075609;28;19942;-76
2022/05/03 00:29:54;;;;;;;;;;;;;;;7.19;100.00;100841.56;5075456;28;20016;-78
2022/05/03 00:32:23;;;;;;;;;;;;;;;7.18;100.00;100836.25;5075308;28;20396;-75
2022/05/03 00:34:49;;;;;;;;;;;;;;;7.17;100.00;100835.34;5073395;28;19920;-78
2022/05/03 00:37:14;;;;;;;;;;;;;;;7.14;100.00;100832.56;5075868;28;19920;-77
2022/05/03 00:39:40;;;;;;;;;;;;;;;7.12;100.00;100823.75;5057580;28;19967;-76
2022/05/03 00:42:22;;;;;;;;;;;;;;;7.10;100.00;100804.47;5087354;28;19920;-74
2022/05/03 00:44:58;;;;;;;;;;;;;;;7.10;100.00;100798.31;5062771;28;20246;-78
2022/05/03 00:47:39;;;;;;;;;;;;;;;7.09;100.00;100783.44;5072150;28;19916;-76
2022/05/03 00:50:23;;;;;;;;;;;;;;;7.02;100.00;100779.59;5071864;28;19930;-73
2022/05/03 00:52:58;;;;;;;;;;;;;;;7.04;100.00;100770.13;5070291;28;20015;-73
2022/05/03 00:55:42;;;;;;;;;;;;;;;7.05;100.00;100755.28;5072035;28;20072;-73
2022/05/03 00:58:16;;;;;;;;;;;;;;;7.06;100.00;100729.19;5076949;28;19959;-73
2022/05/03 01:01:00;;;;;;;;;;;;;;;7.01;100.00;100717.59;5073723;28;20367;-75
2022/05/03 01:03:48;;;;;;;;;;;;;;;7.00;100.00;100687.00;5070660;28;20401;-76
2022/05/03 01:06:13;;;;;;;;;;;;;;;7.00;100.00;100652.97;5020373;28;19916;-75
2022/05/03 01:08:41;;;;;;;;;;;;;;;6.98;100.00;100621.47;5068394;28;20288;-75
2022/05/03 01:11:26;;;;;;;;;;;;;;;6.94;100.00;100608.16;5072355;28;19923;-77
2022/05/03 01:14:00;;;;;;;;;;;;;;;6.93;100.00;100570.63;5073167;28;20022;-73
2022/05/03 01:16:30;;;;;;;;;;;;;;;6.93;100.00;100523.53;5070859;28;19913;-73
2022/05/03 01:19:14;;;;;;;;;;;;;;;6.94;100.00;100524.41;5070292;28;19925;-73
2022/05/03 01:21:51;;;;;;;;;;;;;;;6.94;100.00;100491.25;5071002;28;19912;-73
2022/05/03 01:24:35;;;;;;;;;;;;;;;6.97;100.00;100448.63;5087483;28;19916;-73
2022/05/03 01:27:16;;;;;;;;;;;;;;;6.88;100.00;100432.50;5053831;28;19920;-75
2022/05/03 01:29:44;;;;;;;;;;;;;;;6.85;100.00;100428.03;5071334;28;19920;-73
2022/05/03 01:32:09;;;;;;;;;;;;;;;6.86;100.00;100415.84;5070005;28;19950;-73
2022/05/03 01:34:36;;;;;;;;;;;;;;;6.76;100.00;100415.44;5072835;28;20421;-72
2022/05/03 01:37:30;;;;;;;;;;;;;;;6.73;100.00;100404.84;5056936;28;19917;-74
2022/05/03 01:40:06;;;;;;;;;;;;;;;6.72;100.00;100418.75;5071255;28;20028;-73
2022/05/03 01:42:31;;;;;;;;;;;;;;;6.74;100.00;100406.66;5078615;28;19927;-74
2022/05/03 01:45:04;;;;;;;;;;;;;;;6.74;100.00;100392.66;5073341;28;19995;-73
2022/05/03 01:47:44;;;;;;;;;;;;;;;6.76;100.00;100377.94;5052125;28;20388;-72
2022/05/03 01:50:28;;;;;;;;;;;;;;;6.72;100.00;100358.56;5056230;28;20287;-72
2022/05/03 01:53:05;;;;;;;;;;;;;;;6.71;100.00;100350.66;5068305;28;19916;-73
2022/05/03 01:55:30;;;;;;;;;;;;;;;6.72;100.00;100326.28;5070626;28;19921;-73
2022/05/03 01:57:55;;;;;;;;;;;;;;;6.70;100.00;100318.38;5078151;28;19989;-74
2022/05/03 02:00:22;;;;;;;;;;;;;;;6.68;100.00;100303.41;5072814;28;19916;-72
2022/05/03 02:02:53;;;;;;;;;;;;;;;6.68;100.00;100301.72;5067693;28;19926;-74
2022/05/03 02:05:39;;;;;;;;;;;;;;;6.66;100.00;100285.03;5053628;28;20434;-73
2022/05/03 02:08:04;;;;;;;;;;;;;;;6.60;100.00;100263.84;5058915;28;19916;-74
2022/05/03 02:10:33;;;;;;;;;;;;;;;6.57;100.00;100262.00;5092054;28;19973;-74
2022/05/03 02:13:06;;;;;;;;;;;;;;;6.52;100.00;100236.47;5063474;28;20003;-76
2022/05/03 02:15:38;;;;;;;;;;;;;;;6.54;100.00;100208.66;5071357;28;19917;-78
2022/05/03 02:18:05;;;;;;;;;;;;;;;6.52;100.00;100189.38;5070900;28;20345;-76
2022/05/03 02:20:49;;;;;;;;;;;;;;;6.53;100.00;100171.16;5077210;28;19988;-78
2022/05/03 02:23:25;;;;;;;;;;;;;;;6.55;100.00;100163.38;5073961;28;19923;-74
2022/05/03 02:26:09;;;;;;;;;;;;;;;6.54;100.00;100148.47;5091645;28;19927;-76
2022/05/03 02:28:40;;;;;;;;;;;;;;;6.56;100.00;100120.69;5067319;28;19976;-77
2022/05/03 02:31:07;;;;;;;;;;;;;;;6.58;100.00;100105.94;5083895;28;19920;-78
2022/05/03 02:33:57;;;;;;;;;;;;;;;6.53;100.00;100086.56;5078075;28;19920;-78
2022/05/03 02:36:24;;;;;;;;;;;;;;;6.54;100.00;100046.47;5083294;28;20310;-76
2022/05/03 02:39:05;;;;;;;;;;;;;;;6.53;100.00;100011.59;5075786;28;19958;-78
2022/05/03 02:41:40;;;;;;;;;;;;;;;6.57;100.00;99966.41;5077901;28;19955;-78
2022/05/03 02:44:11;;;;;;;;;;;;;;;6.53;100.00;99938.34;5095029;28;19916;-79
2022/05/03 02:46:37;;;;;;;;;;;;;;;6.56;100.00;99912.31;5096657;28;20018;-79
2022/05/03 02:49:03;;;;;;;;;;;;;;;6.57;100.00;99895.78;5077746;28;19955;-77
2022/05/03 02:51:35;;;;;;;;;;;;;;;6.58;100.00;99873.13;5064712;28;19916;-80
2022/05/03 02:54:03;;;;;;;;;;;;;;;6.54;100.00;99855.53;5074380;28;19981;-79
2022/05/03 02:56:36;;;;;;;;;;;;;;;6.54;100.00;99840.75;5074890;28;20380;-79
2022/05/03 02:59:18;;;;;;;;;;;;;;;6.56;100.00;99832.97;5091732;28;19956;-79
2022/05/03 03:01:56;;;;;;;;;;;;;;;6.55;100.00;99812.84;5078098;28;19920;-79
2022/05/03 03:04:43;;;;;;;;;;;;;;;6.56;100.00;99798.94;5078332;28;19963;-78
2022/05/03 03:07:12;;;;;;;;;;;;;;;6.55;100.00;99791.94;5077134;28;20364;-79
2022/05/03 03:09:40;;;;;;;;;;;;;;;6.50;100.00;99794.38;5079435;28;19962;-78
2022/05/03 03:12:19;;;;;;;;;;;;;;;6.49;100.00;99791.72;5073048;28;19923;-78
2022/05/03 03:14:55;;;;;;;;;;;;;;;6.42;100.00;99794.09;5074122;28;19920;-79
2022/05/03 03:17:26;;;;;;;;;;;;;;;6.41;100.00;99794.94;5076863;28;19942;-79
2022/05/03 03:20:06;;;;;;;;;;;;;;;6.38;100.00;99792.22;5076831;28;19916;-80
2022/05/03 03:22:35;;;;;;;;;;;;;;;6.40;100.00;99780.09;5069748;28;19916;-78
2022/05/03 03:25:13;;;;;;;;;;;;;;;6.34;100.00;99771.13;5074514;28;20406;-79
2022/05/03 03:27:39;;;;;;;;;;;;;;;6.25;100.00;99769.09;5089591;28;19962;-77
2022/05/03 03:30:06;;;;;;;;;;;;;;;6.22;100.00;99768.97;5066290;28;19924;-80
2022/05/03 03:32:32;;;;;;;;;;;;;;;6.22;100.00;99774.22;5074593;28;19930;-79
2022/05/03 03:34:58;;;;;;;;;;;;;;;6.22;100.00;99761.13;5065450;28;19920;-75
2022/05/03 03:37:28;;;;;;;;;;;;;;;6.22;100.00;99768.97;5065231;28;19973;-78
2022/05/03 03:39:53;;;;;;;;;;;;;;;6.19;100.00;99761.03;5060562;28;19944;-74
2022/05/03 03:42:19;;;;;;;;;;;;;;;6.18;100.00;99761.84;5064600;28;20368;-74
2022/05/03 03:44:46;;;;;;;;;;;;;;;6.16;100.00;99774.88;5075646;28;20372;-73
2022/05/03 03:47:11;;;;;;;;;;;;;;;6.18;100.00;99770.56;5090759;28;20421;-74
2022/05/03 03:49:37;;;;;;;;;;;;;;;6.20;100.00;99775.84;5071467;28;19920;-74
2022/05/03 03:52:02;;;;;;;;;;;;;;;6.21;100.00;99772.41;5074840;28;19924;-75
2022/05/03 03:54:28;;;;;;;;;;;;;;;6.19;100.00;99767.13;5075768;28;19923;-74
2022/05/03 03:56:54;;;;;;;;;;;;;;;6.21;100.00;99772.41;5093272;28;19916;-73
2022/05/03 03:59:20;;;;;;;;;;;;;;;6.13;100.00;99766.91;5074712;28;20557;-74
2022/05/03 04:01:45;;;;;;;;;;;;;;;6.15;100.00;99765.22;5068054;28;20319;-75
2022/05/03 04:04:11;;;;;;;;;;;;;;;6.15;100.00;99765.22;5061459;28;20015;-73
2022/05/03 04:06:36;;;;;;;;;;;;;;;6.14;100.00;99765.19;5055580;28;19948;-75
2022/05/03 04:09:02;;;;;;;;;;;;;;;6.14;100.00;99755.63;5055298;28;19917;-74
2022/05/03 04:11:27;;;;;;;;;;;;;;;6.21;100.00;99744.53;5078252;28;19969;-74
2022/05/03 04:13:53;;;;;;;;;;;;;;;6.25;100.00;99740.34;5059858;28;20355;-74
2022/05/03 04:16:19;;;;;;;;;;;;;;;6.26;100.00;99735.16;5054973;28;19969;-74
2022/05/03 04:18:44;;;;;;;;;;;;;;;6.24;100.00;99735.94;5064786;28;19920;-76
2022/05/03 04:21:17;;;;;;;;;;;;;;;6.27;100.00;99736.91;5074752;28;20372;-74
2022/05/03 04:23:43;;;;;;;;;;;;;;;6.34;100.00;99740.66;5074907;28;19920;-73
2022/05/03 04:26:11;;;;;;;;;;;;;;;6.40;100.00;99729.50;5057698;28;19993;-74
2022/05/03 04:28:37;;;;;;;;;;;;;;;6.44;100.00;99732.28;5060765;28;19927;-74
2022/05/03 04:31:02;;;;;;;;;;;;;;;6.52;100.00;99726.44;5055230;28;19920;-78
2022/05/03 04:33:27;;;;;;;;;;;;;;;6.69;100.00;99719.16;5075527;28;19912;-76
2022/05/03 04:35:53;;;;;;;;;;;;;;;6.73;100.00;99721.06;5075059;28;19927;-74
2022/05/03 04:38:18;;;;;;;;;;;;;;;6.84;100.00;99730.13;5075406;28;19912;-78
2022/05/03 04:40:43;;;;;;;;;;;;;;;7.23;100.00;99716.53;5063961;28;19921;-74
2022/05/03 04:43:09;;;;;;;;;;;;;;;7.73;100.00;99705.81;5047340;28;19920;-78
2022/05/03 04:45:35;;;;;;;;;;;;;;;7.92;100.00;99704.59;5075690;28;19915;-75
2022/05/03 04:48:00;;;;;;;;;;;;;;;8.33;100.00;99702.25;5092947;28;20007;-78
2022/05/03 04:50:25;;;;;;;;;;;;;;;9.18;100.00;99691.22;5074217;28;19912;-73
2022/05/03 04:52:53;;;;;;;;;;;;;;;10.12;100.00;99682.69;5068786;28;19928;-80
2022/05/03 04:55:18;;;;;;;;;;;;;;;10.55;100.00;99706.28;5055322;28;19917;-79
2022/05/03 04:57:43;;;;;;;;;;;;;;;10.54;100.00;99784.38;5056260;28;19917;-79
2022/05/03 05:00:09;;;;;;;;;;;;;;;10.22;100.00;99971.41;5055340;28;20011;-79
2022/05/03 05:02:34;;;;;;;;;;;;;;;9.99;100.00;100157.59;5075916;28;19920;-78
2022/05/03 05:05:01;;;;;;;;;;;;;;;9.91;100.00;100256.41;5055176;28;19913;-79
2022/05/03 05:07:26;;;;;;;;;;;;;;;10.41;100.00;100335.09;5055091;28;19920;-74
2022/05/03 05:12:36;;;;;;;;;;;;;;;10.78;100.00;100488.81;5094331;28;19945;-79
2022/05/03 05:15:02;;;;;;;;;;;;;;;11.04;100.00;100534.38;5075677;28;19966;-78
2022/05/03 05:17:27;;;;;;;;;;;;;;;11.04;100.00;100617.81;5075204;28;19917;-79
2022/05/03 05:19:53;;;;;;;;;;;;;;;11.05;100.00;100673.19;5075569;28;19920;-79
2022/05/03 05:22:18;;;;;;;;;;;;;;;10.82;100.00;100761.13;5070182;28;19924;-78
2022/05/03 05:24:45;;;;;;;;;;;;;;;10.50;100.00;100777.63;5071902;28;19928;-80
2022/05/03 05:27:11;;;;;;;;;;;;;;;10.39;100.00;100800.94;5074378;28;20326;-79
2022/05/03 05:29:36;;;;;;;;;;;;;;;10.61;100.00;100804.31;5075471;28;19920;-78
2022/05/03 05:32:01;;;;;;;;;;;;;;;11.44;100.00;100851.91;5061415;28;20640;-79
2022/05/03 05:34:27;;;;;;;;;;;;;;;11.61;100.00;100984.31;5067804;28;19965;-78
2022/05/03 05:36:53;;;;;;;;;;;;;;;12.53;100.00;101083.22;5069010;28;19924;-78
2022/05/03 05:39:18;;;;;;;;;;;;;;;12.50;100.00;101210.81;5079876;28;19920;-77
2022/05/03 05:41:43;;;;;;;;;;;;;;;12.68;100.00;101289.81;5071338;28;20284;-77
2022/05/03 05:44:10;;;;;;;;;;;;;;;13.43;100.00;101367.22;5070898;28;19938;-74
2022/05/03 05:46:35;;;;;;;;;;;;;;;13.98;100.00;101463.34;5072718;28;19920;-74
2022/05/03 05:49:01;;;;;;;;;;;;;;;15.07;100.00;101539.97;5072537;28;19973;-76
2022/05/03 05:51:27;;;;;;;;;;;;;;;14.30;100.00;101609.19;5091169;28;19916;-76
2022/05/03 05:53:52;;;;;;;;;;;;;;;13.51;100.00;101619.72;5073028;28;19964;-75
2022/05/03 05:56:17;;;;;;;;;;;;;;;12.69;100.00;101602.47;5056513;28;19950;-75
2022/05/03 05:58:43;;;;;;;;;;;;;;;12.38;100.00;101569.56;5072440;28;19912;-75
2022/05/03 06:01:08;;;;;;;;;;;;;;;12.20;100.00;101560.06;5072602;28;19920;-76
2022/05/03 06:03:34;;;;;;;;;;;;;;;11.62;100.00;101540.03;5071214;28;20323;-76
2022/05/03 06:05:59;;;;;;;;;;;;;;;11.23;100.00;101512.84;5072979;28;19916;-75
2022/05/03 06:08:25;;;;;;;;;;;;;;;11.21;100.00;101504.84;5090970;28;19916;-75
2022/05/03 06:10:50;;;;;;;;;;;;;;;11.44;100.00;101497.94;5072087;28;19912;-75
2022/05/03 06:13:16;;;;;;;;;;;;;;;11.46;100.00;101496.28;5072981;28;19963;-76
2022/05/03 06:15:41;;;;;;;;;;;;;;;11.28;100.00;101498.16;5072920;28;20391;-77
2022/05/03 06:18:08;;;;;;;;;;;;;;;11.37;100.00;101484.44;5090233;28;19958;-75
2022/05/03 06:20:33;;;;;;;;;;;;;;;11.41;100.00;101502.19;5073121;28;19951;-76
2022/05/03 06:22:59;;;;;;;;;;;;;;;11.43;100.00;101493.50;5072915;28;19954;-77
2022/05/03 06:25:25;;;;;;;;;;;;;;;11.46;100.00;101501.53;5090298;28;19923;-76
2022/05/03 06:27:51;;;;;;;;;;;;;;;11.53;100.00;101510.63;5069189;28;19920;-75
2022/05/03 06:30:16;;;;;;;;;;;;;;;11.57;100.00;101511.66;5068862;28;19921;-78
2022/05/03 06:32:43;;;;;;;;;;;;;;;11.62;100.00;101524.22;5070452;28;19916;-74
2022/05/03 06:35:09;;;;;;;;;;;;;;;11.88;100.00;101524.41;5069918;28;19963;-78
2022/05/03 06:37:36;;;;;;;;;;;;;;;11.70;100.00;101544.72;5069808;28;19970;-76
2022/05/03 06:40:01;;;;;;;;;;;;;;;11.74;100.00;101544.03;5068645;28;20030;-80
2022/05/03 06:42:26;;;;;;;;;;;;;;;11.97;100.00;101552.94;5069838;28;19923;-79
2022/05/03 06:44:52;;;;;;;;;;;;;;;12.16;100.00;101554.59;5070378;28;19920;-74
2022/05/03 06:47:18;;;;;;;;;;;;;;;12.31;100.00;101571.06;5069170;28;19975;-76
2022/05/03 06:49:44;;;;;;;;;;;;;;;12.36;100.00;101592.38;5069506;28;20317;-79
2022/05/03 06:52:09;;;;;;;;;;;;;;;12.15;100.00;101588.03;5069401;28;20015;-78
2022/05/03 06:54:34;;;;;;;;;;;;;;;12.11;100.00;101590.47;5068694;28;19917;-77
2022/05/03 06:56:59;;;;;;;;;;;;;;;12.39;100.00;101603.06;5069973;28;20489;-75
2022/05/03 06:59:24;;;;;;;;;;;;;;;12.47;100.00;101614.84;5069734;28;19923;-75
2022/05/03 07:01:50;;;;;;;;;;;;;;;12.72;100.00;101616.75;5069217;28;19920;-74
2022/05/03 07:04:15;;;;;;;;;;;;;;;13.07;100.00;101640.09;5052651;28;19921;-76
2022/05/03 07:06:40;;;;;;;;;;;;;;;12.86;100.00;101664.81;5068735;28;20336;-75
2022/05/03 07:09:05;;;;;;;;;;;;;;;12.67;100.00;101659.66;5068596;28;19929;-74
2022/05/03 07:11:31;;;;;;;;;;;;;;;12.45;100.00;101665.81;5069606;28;19917;-79
2022/05/03 07:13:57;;;;;;;;;;;;;;;12.42;100.00;101663.94;5068873;28;19916;-79
2022/05/03 07:16:22;;;;;;;;;;;;;;;12.27;100.00;101671.22;5073218;28;19916;-74
2022/05/03 07:24:15;;;;;;;;;;;;;;;12.52;100.00;101676.72;5073838;28;19931;-77
2022/05/03 07:26:41;;;;;;;;;;;;;;;12.55;100.00;101668.91;5072464;28;19916;-75
2022/05/03 07:29:07;;;;;;;;;;;;;;;12.83;100.00;101677.03;5055079;28;19935;-75
2022/05/03 07:31:32;;;;;;;;;;;;;;;12.97;100.00;101693.44;5073746;28;19917;-77
2022/05/03 07:33:58;;;;;;;;;;;;;;;13.14;100.00;101696.75;5072228;28;19928;-79
2022/05/03 07:36:27;;;;;;;;;;;;;;;13.28;100.00;101703.47;5072218;28;19943;-77
2022/05/03 07:38:52;;;;;;;;;;;;;;;13.50;100.00;101706.97;5071774;28;19921;-76
2022/05/03 07:41:17;;;;;;;;;;;;;;;13.63;100.00;101720.72;5055896;28;19928;-76
2022/05/03 07:43:43;;;;;;;;;;;;;;;13.56;100.00;101739.84;5072174;28;19940;-76
2022/05/03 07:46:09;;;;;;;;;;;;;;;13.58;100.00;101743.47;5072041;28;20296;-77
2022/05/03 07:48:35;;;;;;;;;;;;;;;13.79;100.00;101748.66;5072793;28;19922;-76
2022/05/03 07:51:00;;;;;;;;;;;;;;;14.05;100.00;101747.81;5071462;28;20288;-75
2022/05/03 07:53:25;;;;;;;;;;;;;;;14.06;100.00;101760.19;5072604;28;19917;-75
2022/05/03 07:55:51;;;;;;;;;;;;;;;14.05;100.00;101774.31;5071090;28;19926;-75
2022/05/03 07:58:18;;;;;;;;;;;;;;;14.03;100.00;101775.97;5071140;28;19916;-76
2022/05/03 08:00:44;;;;;;;;;;;;;;;13.80;100.00;101776.94;5054996;28;20398;-76
2022/05/03 08:03:09;;;;;;;;;;;;;;;13.55;100.00;101772.47;5070902;28;19916;-75
2022/05/03 08:05:34;;;;;;;;;;;;;;;13.86;100.00;101763.03;5071420;28;19940;-75
2022/05/03 08:08:00;;;;;;;;;;;;;;;13.95;100.00;101771.31;5071373;28;19927;-76
2022/05/03 08:10:25;;;;;;;;;;;;;;;14.05;100.00;101776.97;5070473;28;19960;-74
2022/05/03 08:12:51;;;;;;;;;;;;;;;14.13;100.00;101781.66;5071005;28;19917;-75
2022/05/03 08:15:17;;;;;;;;;;;;;;;14.40;100.00;101785.25;5072194;28;20057;-76
2022/05/03 08:17:42;;;;;;;;;;;;;;;14.35;100.00;101808.94;5072844;28;19938;-72
2022/05/03 08:20:07;;;;;;;;;;;;;;;14.84;100.00;101817.75;5074565;28;19916;-73
2022/05/03 08:22:34;;;;;;;;;;;;;;;14.51;100.00;101835.16;5057850;28;19965;-74
2022/05/03 08:25:00;;;;;;;;;;;;;;;14.26;100.00;101828.06;5090635;28;19916;-76
2022/05/03 08:27:25;;;;;;;;;;;;;;;14.34;100.00;101823.00;5073754;28;20080;-74
2022/05/03 08:29:50;;;;;;;;;;;;;;;14.26;100.00;101821.84;5073954;28;19931;-74
2022/05/03 08:32:15;;;;;;;;;;;;;;;14.40;100.00;101830.28;5073717;28;20387;-74
2022/05/03 08:34:41;;;;;;;;;;;;;;;14.04;100.00;101822.81;5074309;28;19917;-74
2022/05/03 08:42:33;;;;;;;;;;;;;;;13.59;100.00;101819.34;5092656;28;19924;-73
2022/05/03 08:45:02;;;;;;;;;;;;;;;13.70;100.00;101810.94;5056825;28;19924;-73
2022/05/03 08:47:28;;;;;;;;;;;;;;;13.70;100.00;101805.66;5073523;28;20368;-74
2022/05/03 08:50:04;;;;;;;;;;;;;;;13.71;100.00;101810.09;5073472;28;20006;-74
2022/05/03 08:52:33;;;;;;;;;;;;;;;13.63;100.00;101802.75;5073281;28;20172;-74
2022/05/03 08:54:59;;;;;;;;;;;;;;;13.77;100.00;101791.81;5091238;28;19923;-74
2022/05/03 08:57:24;;;;;;;;;;;;;;;13.99;100.00;101802.34;5073523;28;19927;-74
2022/05/03 08:59:50;;;;;;;;;;;;;;;13.85;100.00;101808.88;5073028;28;20367;-73
2022/05/03 09:02:15;;;;;;;;;;;;;;;13.93;100.00;101811.81;5091621;28;19924;-73
2022/05/03 09:04:41;;;;;;;;;;;;;;;14.25;100.00;101805.06;5091835;28;19916;-75
2022/05/03 09:07:19;;;;;;;;;;;;;;;14.64;100.00;101811.75;5072695;28;19928;-74
2022/05/03 09:09:44;;;;;;;;;;;;;;;14.31;100.00;101826.47;5073534;28;20411;-73
2022/05/03 09:12:20;;;;;;;;;;;;;;;14.14;100.00;101832.91;5073026;28;20006;-74
2022/05/03 09:14:46;;;;;;;;;;;;;;;13.93;100.00;101827.69;5072903;28;19925;-73
2022/05/03 09:17:11;;;;;;;;;;;;;;;13.77;100.00;101818.28;5073326;28;19916;-74
2022/05/03 09:19:37;;;;;;;;;;;;;;;13.90;100.00;101815.25;5091272;28;19947;-77
2022/05/03 09:24:52;;;;;;;;;;;;;;;14.05;100.00;101808.72;5091313;28;19974;-74
2022/05/03 09:27:21;;;;;;;;;;;;;;;14.60;100.00;101805.44;5073514;28;19955;-73
2022/05/03 09:30:01;;;;;;;;;;;;;;;14.36;100.00;101827.53;5073245;28;20253;-74
2022/05/03 09:32:33;;;;;;;;;;;;;;;14.60;100.00;101828.34;5091026;28;20434;-73
2022/05/03 09:34:59;;;;;;;;;;;;;;;14.96;100.00;101842.03;5072501;28;19959;-75
2022/05/03 09:37:37;;;;;;;;;;;;;;;15.33;100.00;101863.56;5073091;28;20394;-74
2022/05/03 09:40:02;;;;;;;;;;;;;;;15.14;100.00;101867.34;5090917;28;19919;-74
2022/05/03 09:42:28;;;;;;;;;;;;;;;15.44;100.00;101873.69;5072614;28;19926;-75
2022/05/03 09:44:55;;;;;;;;;;;;;;;15.08;100.00;101882.19;5072834;28;20360;-73
2022/05/03 09:47:22;;;;;;;;;;;;;;;15.15;100.00;101874.44;5073089;28;19920;-75
2022/05/03 09:49:47;;;;;;;;;;;;;;;15.15;100.00;101875.38;5072273;28;19916;-77
2022/05/03 09:52:42;;;;;;;;;;;;;;;14.81;100.00;101865.38;5073192;28;19921;-73
2022/05/03 09:55:09;;;;;;;;;;;;;;;15.01;100.00;101861.63;5059922;28;19924;-74
2022/05/03 09:57:39;;;;;;;;;;;;;;;15.33;100.00;101867.09;5072399;28;19930;-74
2022/05/03 10:00:05;;;;;;;;;;;;;;;14.82;100.00;101885.72;5072923;28;20332;-74
2022/05/03 10:02:32;;;;;;;;;;;;;;;14.97;100.00;101883.59;5071835;28;19920;-73
2022/05/03 10:04:58;;;;;;;;;;;;;;;15.18;100.00;101882.50;5072837;28;19962;-74
2022/05/03 10:07:24;;;;;;;;;;;;;;;15.01;100.00;101889.94;5072181;28;19920;-74
2022/05/03 10:09:49;;;;;;;;;;;;;;;14.81;100.00;101875.97;5090039;28;19916;-73
2022/05/03 10:12:15;;;;;;;;;;;;;;;15.33;100.00;101884.78;5072531;28;20089;-74
2022/05/03 10:14:42;;;;;;;;;;;;;;;15.01;100.00;101885.50;5073008;28;19920;-73
2022/05/03 10:22:48;;;;;;;;;;;;;;;16.01;100.00;101877.22;5090290;28;20338;-74
2022/05/03 10:25:15;;;;;;;;;;;;;;;15.57;100.00;101897.97;5090317;28;19916;-73
2022/05/03 10:27:54;;;;;;;;;;;;;;;15.91;100.00;101896.38;5072620;28;19931;-74
2022/05/03 10:30:20;;;;;;;;;;;;;;;15.72;100.00;101892.22;5072455;28;19920;-74
2022/05/03 10:33:07;;;;;;;;;;;;;;;15.92;100.00;101885.81;5072109;28;19950;-74
2022/05/03 10:35:33;;;;;;;;;;;;;;;16.22;100.00;101890.25;5041785;28;19977;-75
2022/05/03 10:37:59;;;;;;;;;;;;;;;16.56;100.00;101899.16;5054960;28;19971;-73
2022/05/03 10:40:38;;;;;;;;;;;;;;;16.92;100.00;101898.44;5090942;28;20356;-74
2022/05/03 10:43:09;;;;;;;;;;;;;;;16.88;100.00;101923.16;5072116;28;19943;-74
2022/05/03 10:45:47;;;;;;;;;;;;;;;16.51;100.00;101936.28;5072045;28;19920;-72
2022/05/03 10:48:23;;;;;;;;;;;;;;;16.85;100.00;101918.59;5072536;28;19916;-74
2022/05/03 10:50:50;;;;;;;;;;;;;;;16.08;100.00;101929.69;5092956;28;19916;-74
2022/05/03 10:53:16;;;;;;;;;;;;;;;16.35;100.00;101909.22;5058344;28;19928;-75
2022/05/03 10:56:01;;;;;;;;;;;;;;;16.11;100.00;101904.94;5076296;28;20001;-73
2022/05/03 10:58:27;;;;;;;;;;;;;;;15.41;100.00;101902.78;5075725;28;20321;-73
2022/05/03 11:01:11;;;;;;;;;;;;;;;15.71;100.00;101888.69;5093526;28;19961;-73
2022/05/03 11:03:39;;;;;;;;;;;;;;;15.58;100.00;101887.41;5075961;28;19927;-73
2022/05/03 11:06:23;;;;;;;;;;;;;;;15.87;100.00;101883.88;5074978;28;20391;-74
2022/05/03 11:11:44;;;;;;;;;;;;;;;15.97;100.00;101896.56;5094215;28;19915;-73
2022/05/03 11:14:16;;;;;;;;;;;;;;;15.82;100.00;101882.81;5075015;28;19966;-73
2022/05/03 11:16:44;;;;;;;;;;;;;;;15.36;100.00;101882.22;5075828;28;19921;-74
2022/05/03 11:19:10;;;;;;;;;;;;;;;15.27;100.00;101866.91;5075606;28;20136;-75
2022/05/03 11:21:36;;;;;;;;;;;;;;;15.68;100.00;101862.03;5093494;28;19931;-77
2022/05/03 11:24:01;;;;;;;;;;;;;;;15.65;100.00;101861.94;5075818;28;19916;-74
2022/05/03 11:26:26;;;;;;;;;;;;;;;15.69;100.00;101858.53;5075915;28;20047;-76
2022/05/03 11:28:52;;;;;;;;;;;;;;;15.61;100.00;101878.59;5093036;28;20451;-74
2022/05/03 11:31:21;;;;;;;;;;;;;;;15.43;100.00;101870.97;5093703;28;20364;-75
2022/05/03 11:33:50;;;;;;;;;;;;;;;15.62;100.00;101878.66;5075764;28;19955;-75
2022/05/03 11:36:15;;;;;;;;;;;;;;;15.33;100.00;101866.22;5093914;28;19999;-75
2022/05/03 11:38:40;;;;;;;;;;;;;;;15.31;100.00;101863.50;5075208;28;20042;-73
2022/05/03 11:41:07;;;;;;;;;;;;;;;15.61;100.00;101865.34;5075476;28;19965;-75
2022/05/03 11:43:33;;;;;;;;;;;;;;;15.62;100.00;101861.84;5059131;28;19981;-75
2022/05/03 11:45:58;;;;;;;;;;;;;;;15.52;100.00;101859.72;5093362;28;20023;-77
2022/05/03 11:48:24;;;;;;;;;;;;;;;14.93;100.00;101868.44;5075216;28;19999;-74
2022/05/03 11:56:23;;;;;;;;;;;;;;;14.91;100.00;101848.91;5093557;28;19981;-77
2022/05/03 11:58:48;;;;;;;;;;;;;;;14.77;100.00;101828.97;5075227;28;20386;-76
2022/05/03 12:01:15;;;;;;;;;;;;;;;14.96;100.00;101809.28;5092295;28;19916;-75
2022/05/03 12:03:44;;;;;;;;;;;;;;;14.81;100.00;101820.28;5092915;28;20034;-76
2022/05/03 12:06:09;;;;;;;;;;;;;;;14.83;100.00;101800.91;5093046;28;19916;-75
2022/05/03 12:08:35;;;;;;;;;;;;;;;15.27;100.00;101805.88;5075416;28;19923;-78
2022/05/03 12:11:00;;;;;;;;;;;;;;;15.54;100.00;101810.25;5074906;28;20237;-74
2022/05/03 12:13:27;;;;;;;;;;;;;;;15.12;100.00;101819.56;5074923;28;19923;-76
2022/05/03 12:15:59;;;;;;;;;;;;;;;15.17;100.00;101811.75;5075305;28;19912;-76
2022/05/03 12:18:27;;;;;;;;;;;;;;;14.88;100.00;101812.59;5074818;28;19951;-74
2022/05/03 12:20:54;;;;;;;;;;;;;;;14.80;100.00;101805.22;5075638;28;19962;-78
2022/05/03 12:23:22;;;;;;;;;;;;;;;14.67;100.00;101804.81;5074176;28;20053;-75
2022/05/03 12:25:55;;;;;;;;;;;;;;;14.62;100.00;101797.53;5074194;28;19977;-75
2022/05/03 12:28:20;;;;;;;;;;;;;;;14.44;100.00;101779.22;5074267;28;19958;-75
2022/05/03 12:30:54;;;;;;;;;;;;;;;14.60;100.00;101763.00;5073721;28;19916;-75
2022/05/03 12:33:20;;;;;;;;;;;;;;;14.23;100.00;101759.09;5092792;28;19912;-76
2022/05/03 12:35:47;;;;;;;;;;;;;;;14.33;100.00;101736.44;5092267;28;19916;-76
2022/05/03 12:38:14;;;;;;;;;;;;;;;14.34;100.00;101741.81;5073489;28;19912;-75
2022/05/03 12:40:47;;;;;;;;;;;;;;;13.83;100.00;101749.69;5074160;28;19924;-75
2022/05/03 12:43:17;;;;;;;;;;;;;;;13.97;100.00;101734.31;5074095;28;19927;-75
2022/05/03 12:45:54;;;;;;;;;;;;;;;13.96;100.00;101740.44;5091655;28;19912;-74
2022/05/03 12:48:19;;;;;;;;;;;;;;;13.75;100.00;101735.25;5074393;28;19916;-76
2022/05/03 12:50:45;;;;;;;;;;;;;;;13.86;100.00;101728.63;5073983;28;19995;-75
2022/05/03 12:53:12;;;;;;;;;;;;;;;14.02;100.00;101732.72;5091282;28;20359;-76
2022/05/03 12:55:37;;;;;;;;;;;;;;;14.09;100.00;101733.81;5057723;28;19962;-77
2022/05/03 13:00:47;;;;;;;;;;;;;;;14.22;100.00;101741.38;5077240;28;19926;-75
2022/05/03 13:03:12;;;;;;;;;;;;;;;14.06;100.00;101736.38;5074307;28;19916;-77
2022/05/03 13:05:38;;;;;;;;;;;;;;;13.84;100.00;101732.94;5056709;28;20447;-76
2022/05/03 13:08:03;;;;;;;;;;;;;;;13.78;100.00;101731.00;5091844;28;20007;-78
2022/05/03 13:10:29;;;;;;;;;;;;;;;13.69;100.00;101721.78;5073759;28;19916;-78
2022/05/03 13:12:54;;;;;;;;;;;;;;;13.53;100.00;101718.59;5072330;28;19969;-77